createdAt,value
2019-05-21T00:01:38.846Z,87.30
2019-05-21T00:04:08.366Z,87.40
2019-05-21T00:06:37.893Z,87.50
2019-05-21T00:09:07.429Z,87.40
2019-05-21T00:11:36.890Z,87.40
2019-05-21T00:14:06.396Z,87.40
2019-05-21T00:16:35.851Z,87.40
2019-05-21T00:19:05.279Z,87.40
2019-05-21T00:21:34.791Z,87.40
2019-05-21T00:24:04.217Z,87.50
2019-05-21T00:26:33.682Z,87.60
2019-05-21T00:29:38.926Z,87.60
2019-05-21T00:32:25.033Z,87.70
2019-05-21T00:35:44.673Z,87.80
2019-05-21T00:38:52.032Z,88.40
2019-05-21T00:41:57.429Z,88.60
2019-05-21T00:44:27.054Z,88.50
2019-05-21T00:46:56.628Z,88.50
2019-05-21T00:49:26.071Z,88.50
2019-05-21T00:52:07.149Z,88.40
2019-05-21T00:54:26.705Z,88.40
2019-05-21T00:56:56.255Z,88.20
2019-05-21T00:59:25.733Z,88.10
2019-05-21T01:01:55.171Z,88.00
2019-05-21T01:04:24.572Z,87.90
2019-05-21T01:06:54.005Z,87.90
2019-05-21T01:09:23.486Z,87.90
2019-05-21T01:11:52.919Z,88.60
2019-05-21T01:14:22.432Z,87.60
2019-05-21T01:16:51.900Z,87.50
2019-05-21T01:19:21.380Z,87.70
2019-05-21T01:21:50.890Z,87.70
2019-05-21T01:24:20.400Z,87.80
2019-05-21T01:26:49.894Z,87.70
2019-05-21T01:29:19.305Z,87.70
2019-05-21T01:31:51.238Z,87.80
2019-05-21T01:34:20.678Z,87.70
2019-05-21T01:36:50.219Z,87.70
2019-05-21T01:39:19.686Z,87.60
2019-05-21T01:41:49.250Z,87.70
2019-05-21T01:44:18.705Z,87.60
2019-05-21T01:46:48.117Z,87.60
2019-05-21T01:49:17.677Z,87.60
2019-05-21T01:51:47.177Z,87.70
2019-05-21T01:54:16.618Z,87.70
2019-05-21T01:56:46.087Z,87.80
2019-05-21T01:59:15.820Z,87.80
2019-05-21T02:01:45.337Z,87.90
2019-05-21T02:04:14.834Z,87.90
2019-05-21T02:06:44.690Z,87.90
2019-05-21T02:09:17.143Z,87.90
2019-05-21T02:11:46.647Z,88.20
2019-05-21T02:14:16.172Z,88.00
2019-05-21T02:16:45.581Z,88.00
2019-05-21T02:19:15.255Z,88.00
2019-05-21T02:21:44.907Z,88.00
2019-05-21T02:24:14.727Z,88.10
2019-05-21T02:26:44.205Z,88.10
2019-05-21T02:29:13.738Z,88.00
2019-05-21T02:31:43.220Z,88.10
2019-05-21T02:34:12.756Z,88.20
2019-05-21T02:36:42.233Z,88.40
2019-05-21T02:39:11.729Z,88.40
2019-05-21T02:41:41.241Z,88.50
2019-05-21T02:44:10.725Z,88.50
2019-05-21T02:46:40.148Z,88.40
2019-05-21T02:49:09.908Z,88.30
2019-05-21T02:51:39.409Z,88.20
2019-05-21T02:54:08.916Z,88.10
2019-05-21T02:56:38.521Z,88.00
2019-05-21T02:59:08.021Z,88.10
2019-05-21T03:01:46.219Z,88.00
2019-05-21T03:04:15.617Z,88.00
2019-05-21T03:06:45.138Z,87.90
2019-05-21T03:09:14.658Z,87.60
2019-05-21T03:11:44.223Z,87.50
2019-05-21T03:14:13.784Z,87.40
2019-05-21T03:16:43.256Z,87.50
2019-05-21T03:19:16.552Z,87.50
2019-05-21T03:21:43.907Z,87.40
2019-05-21T03:24:13.439Z,87.40
2019-05-21T03:26:42.869Z,87.30
2019-05-21T03:29:12.346Z,87.20
2019-05-21T03:31:41.749Z,87.20
2019-05-21T03:34:11.313Z,87.30
2019-05-21T03:36:40.771Z,87.40
2019-05-21T03:39:10.255Z,87.30
2019-05-21T03:41:39.765Z,87.60
2019-05-21T03:44:09.330Z,87.60
2019-05-21T03:46:38.792Z,87.60
2019-05-21T03:49:08.230Z,87.70
2019-05-21T03:51:38.081Z,87.60
2019-05-21T03:54:07.490Z,87.70
2019-05-21T03:56:37.056Z,87.80
2019-05-21T03:59:06.579Z,87.90
2019-05-21T04:01:36.049Z,88.00
2019-05-21T04:04:05.535Z,88.00
2019-05-21T04:06:50.594Z,88.00
2019-05-21T04:09:07.779Z,88.20
2019-05-21T04:11:37.301Z,88.20
2019-05-21T04:14:06.847Z,88.20
2019-05-21T04:16:47.259Z,88.30
2019-05-21T04:19:23.074Z,88.20
2019-05-21T04:21:52.583Z,88.20
2019-05-21T04:24:22.030Z,88.20
2019-05-21T04:26:51.541Z,88.30
2019-05-21T04:29:21.062Z,88.20
2019-05-21T04:31:50.499Z,88.20
2019-05-21T04:34:20.091Z,88.20
2019-05-21T04:36:49.514Z,88.20
2019-05-21T04:39:18.955Z,88.30
2019-05-21T04:41:49.940Z,88.30
2019-05-21T04:44:19.494Z,88.30
2019-05-21T04:46:49.371Z,88.30
2019-05-21T04:49:19.970Z,88.50
2019-05-21T04:51:49.810Z,88.50
2019-05-21T04:54:21.790Z,88.50
2019-05-21T04:56:51.275Z,88.70
2019-05-21T04:59:20.962Z,88.50
2019-05-21T05:01:50.540Z,88.40
2019-05-21T05:04:21.636Z,88.40
2019-05-21T05:06:51.631Z,88.50
2019-05-21T05:09:21.160Z,88.50
2019-05-21T05:11:50.657Z,88.40
2019-05-21T05:14:20.154Z,88.30
2019-05-21T05:16:49.657Z,88.20
2019-05-21T05:19:19.632Z,88.20
2019-05-21T05:21:49.145Z,88.30
2019-05-21T05:24:18.557Z,88.40
2019-05-21T05:26:48.258Z,88.50
2019-05-21T05:29:17.740Z,88.70
2019-05-21T05:31:47.241Z,88.70
2019-05-21T05:34:16.897Z,89.10
2019-05-21T05:36:46.318Z,89.00
2019-05-21T05:39:16.629Z,89.10
2019-05-21T05:41:46.091Z,89.60
2019-05-21T05:44:15.523Z,89.80
2019-05-21T05:46:44.936Z,89.70
2019-05-21T05:49:19.849Z,90.40
2019-05-21T05:51:49.371Z,90.70
2019-05-21T05:54:18.893Z,90.60
2019-05-21T05:56:48.394Z,90.40
2019-05-21T05:59:17.799Z,90.50
2019-05-21T06:01:47.308Z,90.80
2019-05-21T06:04:16.891Z,90.70
2019-05-21T06:06:46.489Z,90.60
2019-05-21T06:09:15.970Z,90.50
2019-05-21T06:11:45.409Z,90.40
2019-05-21T06:14:16.531Z,90.50
2019-05-21T06:16:46.292Z,90.40
2019-05-21T06:19:15.785Z,90.50
2019-05-21T06:21:45.217Z,90.50
2019-05-21T06:24:14.475Z,90.30
2019-05-21T06:26:43.697Z,90.30
2019-05-21T06:29:12.977Z,90.30
2019-05-21T06:31:42.381Z,90.30
2019-05-21T06:34:11.625Z,90.50
2019-05-21T06:36:40.839Z,90.50
2019-05-21T06:39:10.122Z,90.60
2019-05-21T06:41:39.357Z,90.60
2019-05-21T06:44:08.759Z,90.80
2019-05-21T06:46:38.107Z,90.70
2019-05-21T06:49:07.415Z,90.80
2019-05-21T06:51:36.771Z,90.90
2019-05-21T06:54:06.169Z,90.80
2019-05-21T06:56:35.666Z,91.00
2019-05-21T06:59:04.957Z,91.10
2019-05-21T07:01:34.235Z,91.00
2019-05-21T07:04:03.567Z,90.80
2019-05-21T07:06:32.937Z,90.60
2019-05-21T07:09:02.357Z,91.00
2019-05-21T07:11:31.759Z,90.80
2019-05-21T07:14:01.052Z,90.80
2019-05-21T07:16:30.518Z,90.70
2019-05-21T07:18:59.880Z,90.60
2019-05-21T07:21:29.718Z,90.50
2019-05-21T07:23:59.010Z,90.30
2019-05-21T07:26:28.344Z,90.30
2019-05-21T07:28:57.842Z,90.20
2019-05-21T07:31:27.236Z,90.50
2019-05-21T07:33:56.436Z,90.40
2019-05-21T07:36:25.739Z,90.30
2019-05-21T07:38:55.348Z,90.30
2019-05-21T07:41:24.632Z,90.40
2019-05-21T07:43:53.868Z,90.30
2019-05-21T07:46:23.270Z,90.20
2019-05-21T07:48:52.493Z,90.00
2019-05-21T07:51:21.721Z,90.20
2019-05-21T07:53:50.995Z,90.20
2019-05-21T07:56:20.219Z,90.10
2019-05-21T07:58:49.519Z,90.10
2019-05-21T08:01:18.740Z,90.10
2019-05-21T08:03:48.048Z,90.10
2019-05-21T08:06:17.247Z,90.00
2019-05-21T08:08:46.547Z,89.80
2019-05-21T08:11:16.009Z,89.60
2019-05-21T08:13:45.411Z,89.60
2019-05-21T08:16:14.699Z,89.20
2019-05-21T08:18:44.044Z,89.10
2019-05-21T08:21:13.330Z,89.20
2019-05-21T08:23:42.553Z,89.00
2019-05-21T08:26:11.961Z,88.80
2019-05-21T08:28:41.304Z,89.20
2019-05-21T08:31:10.645Z,89.50
2019-05-21T08:33:39.950Z,89.40
2019-05-21T08:36:09.301Z,89.20
2019-05-21T08:38:38.645Z,89.50
2019-05-21T08:41:07.886Z,89.70
2019-05-21T08:43:37.271Z,89.50
2019-05-21T08:46:06.524Z,89.20
2019-05-21T08:48:36.088Z,89.40
2019-05-21T08:51:05.503Z,89.70
2019-05-21T08:53:34.837Z,90.10
2019-05-21T08:56:04.270Z,90.00
2019-05-21T08:58:33.475Z,89.00
2019-05-21T09:01:02.700Z,89.20
2019-05-21T09:03:32.074Z,88.90
2019-05-21T09:06:01.281Z,88.80
2019-05-21T09:08:30.610Z,88.60
2019-05-21T09:10:59.887Z,88.40
2019-05-21T09:13:29.242Z,88.90
2019-05-21T09:15:58.955Z,88.60
2019-05-21T09:18:28.386Z,88.30
2019-05-21T09:20:57.753Z,88.20
2019-05-21T09:23:27.016Z,87.80
2019-05-21T09:25:56.267Z,87.70
2019-05-21T09:28:25.495Z,87.80
2019-05-21T09:30:55.184Z,87.70
2019-05-21T09:33:24.412Z,87.70
2019-05-21T09:35:53.733Z,87.50
2019-05-21T09:38:23.027Z,87.50
2019-05-21T09:40:52.514Z,87.40
2019-05-21T09:43:24.517Z,87.20
2019-05-21T09:45:53.722Z,86.80
2019-05-21T09:48:22.998Z,86.30
2019-05-21T09:50:52.224Z,86.50
2019-05-21T09:53:21.533Z,85.70
2019-05-21T09:55:50.980Z,86.10
2019-05-21T09:58:29.658Z,85.60
2019-05-21T10:01:12.954Z,85.10
2019-05-21T10:03:43.575Z,84.90
2019-05-21T10:06:12.981Z,84.60
2019-05-21T10:08:42.194Z,84.60
2019-05-21T10:11:11.604Z,84.40
2019-05-21T10:13:40.975Z,84.70
2019-05-21T10:16:10.374Z,84.70
2019-05-21T10:18:39.604Z,84.50
2019-05-21T10:21:08.952Z,84.70
2019-05-21T10:23:38.310Z,84.40
2019-05-21T10:26:07.660Z,84.40
2019-05-21T10:28:36.957Z,84.00
2019-05-21T10:31:06.317Z,84.60
2019-05-21T10:33:35.629Z,83.90
2019-05-21T10:36:05.238Z,84.60
2019-05-21T10:38:34.522Z,84.90
2019-05-21T10:41:03.828Z,84.60
2019-05-21T10:43:33.165Z,84.50
2019-05-21T10:46:02.395Z,84.40
2019-05-21T10:48:31.755Z,84.20
2019-05-21T10:51:01.137Z,84.70
2019-05-21T10:53:30.435Z,84.00
2019-05-21T10:55:59.747Z,83.70
2019-05-21T10:58:29.020Z,83.50
2019-05-21T11:01:05.652Z,83.40
2019-05-21T11:04:02.985Z,83.20
2019-05-21T11:06:32.317Z,83.30
2019-05-21T11:09:01.698Z,83.20
2019-05-21T11:11:30.982Z,83.60
2019-05-21T11:14:00.279Z,83.40
2019-05-21T11:16:29.587Z,83.10
2019-05-21T11:18:58.895Z,83.00
2019-05-21T11:21:28.186Z,82.90
2019-05-21T11:23:57.709Z,83.40
2019-05-21T11:26:27.475Z,83.40
2019-05-21T11:28:56.815Z,83.20
2019-05-21T11:31:26.105Z,83.10
2019-05-21T11:33:55.672Z,82.80
2019-05-21T11:36:25.100Z,82.60
2019-05-21T11:38:54.381Z,82.50
2019-05-21T11:41:23.688Z,82.20
2019-05-21T11:43:52.900Z,83.00
2019-05-21T11:46:22.138Z,81.90
2019-05-21T11:48:51.375Z,81.80
2019-05-21T11:51:20.672Z,81.50
2019-05-21T11:53:49.985Z,81.50
2019-05-21T11:56:19.286Z,81.70
2019-05-21T11:58:48.587Z,81.80
2019-05-21T12:01:17.876Z,81.80
2019-05-21T12:03:47.178Z,81.80
2019-05-21T12:06:16.560Z,81.70
2019-05-21T12:08:56.027Z,81.50
2019-05-21T12:11:17.125Z,81.10
2019-05-21T12:13:46.781Z,81.10
2019-05-21T12:16:15.980Z,81.10
2019-05-21T12:18:45.404Z,81.10
2019-05-21T12:21:14.702Z,80.70
2019-05-21T12:23:44.108Z,80.40
2019-05-21T12:26:13.413Z,80.40
2019-05-21T12:28:42.786Z,80.20
2019-05-21T12:31:12.183Z,80.10
2019-05-21T12:33:41.470Z,80.10
2019-05-21T12:36:10.872Z,80.40
2019-05-21T12:38:40.102Z,80.60
2019-05-21T12:41:13.204Z,80.60
2019-05-21T12:43:40.291Z,80.40
2019-05-21T12:46:09.673Z,80.30
2019-05-21T12:48:38.936Z,80.10
2019-05-21T12:51:08.354Z,80.40
2019-05-21T12:53:37.918Z,80.70
2019-05-21T12:56:07.290Z,80.70
2019-05-21T12:58:36.586Z,80.30
2019-05-21T13:01:05.933Z,80.40
2019-05-21T13:03:35.231Z,80.40
2019-05-21T13:06:04.865Z,80.70
2019-05-21T13:08:34.353Z,80.80
2019-05-21T13:11:03.772Z,80.70
2019-05-21T13:13:33.096Z,80.50
2019-05-21T13:16:03.056Z,80.30
2019-05-21T13:18:32.394Z,79.90
2019-05-21T13:21:01.653Z,80.20
2019-05-21T13:23:30.892Z,79.20
2019-05-21T13:26:00.120Z,78.90
2019-05-21T13:28:29.351Z,78.70
2019-05-21T13:30:58.735Z,78.60
2019-05-21T13:33:28.001Z,78.20
2019-05-21T13:35:57.381Z,77.90
2019-05-21T13:38:27.598Z,77.70
2019-05-21T13:40:58.102Z,77.80
2019-05-21T13:43:27.584Z,77.70
2019-05-21T13:45:56.989Z,77.60
2019-05-21T13:48:26.274Z,77.50
2019-05-21T13:50:55.696Z,77.50
2019-05-21T13:53:24.974Z,77.50
2019-05-21T13:55:54.352Z,77.70
2019-05-21T13:58:23.754Z,77.80
2019-05-21T14:00:54.700Z,77.90
2019-05-21T14:03:24.096Z,78.00
2019-05-21T14:05:53.356Z,77.90
2019-05-21T14:08:22.649Z,78.10
2019-05-21T14:10:51.918Z,78.00
2019-05-21T14:13:21.416Z,78.20
2019-05-21T14:15:50.714Z,77.80
2019-05-21T14:18:19.960Z,77.70
2019-05-21T14:20:49.214Z,77.90
2019-05-21T14:23:18.407Z,77.70
2019-05-21T14:25:47.635Z,76.90
2019-05-21T14:28:16.989Z,77.60
2019-05-21T14:30:46.314Z,77.60
2019-05-21T14:33:15.693Z,77.50
2019-05-21T14:35:44.890Z,78.10
2019-05-21T14:38:14.135Z,77.60
2019-05-21T14:40:43.434Z,77.70
2019-05-21T14:43:12.750Z,77.60
2019-05-21T14:45:42.112Z,77.80
2019-05-21T14:48:11.456Z,78.10
2019-05-21T14:50:40.738Z,78.60
2019-05-21T14:53:10.170Z,78.10
2019-05-21T14:55:39.422Z,77.80
2019-05-21T14:58:08.750Z,77.70
2019-05-21T15:00:38.596Z,78.30
2019-05-21T15:03:23.940Z,78.10
2019-05-21T15:05:38.947Z,77.90
2019-05-21T15:08:08.260Z,77.70
2019-05-21T15:10:47.959Z,77.60
2019-05-21T15:13:08.710Z,77.20
2019-05-21T15:15:37.967Z,76.90
2019-05-21T15:18:07.403Z,76.50
2019-05-21T15:20:47.690Z,76.00
2019-05-21T15:23:17.129Z,76.10
2019-05-21T15:25:46.405Z,76.00
2019-05-21T15:28:15.794Z,76.10
2019-05-21T15:30:45.170Z,76.30
2019-05-21T15:33:14.606Z,76.60
2019-05-21T15:35:43.898Z,76.70
2019-05-21T15:38:13.507Z,76.70
2019-05-21T15:40:43.088Z,76.60
2019-05-21T15:43:12.430Z,76.80
2019-05-21T15:45:41.742Z,77.00
2019-05-21T15:48:11.073Z,77.00
2019-05-21T15:50:40.443Z,77.00
2019-05-21T15:53:09.972Z,77.30
2019-05-21T15:55:39.287Z,77.20
2019-05-21T15:58:08.624Z,77.40
2019-05-21T16:00:37.968Z,77.30
2019-05-21T16:03:07.487Z,77.30
2019-05-21T16:05:36.932Z,77.30
2019-05-21T16:08:06.226Z,77.40
2019-05-21T16:10:35.992Z,77.60
2019-05-21T16:13:05.260Z,77.40
2019-05-21T16:15:34.823Z,77.50
2019-05-21T16:18:04.316Z,77.30
2019-05-21T16:20:33.846Z,77.30
2019-05-21T16:23:03.250Z,77.30
2019-05-21T16:25:32.692Z,77.40
2019-05-21T16:28:02.088Z,77.50
2019-05-21T16:30:31.470Z,77.60
2019-05-21T16:33:00.705Z,77.70
2019-05-21T16:35:30.329Z,77.60
2019-05-21T16:37:59.684Z,77.70
2019-05-21T16:40:28.970Z,77.90
2019-05-21T16:42:58.316Z,78.00
2019-05-21T16:45:27.665Z,78.10
2019-05-21T16:47:57.040Z,78.10
2019-05-21T16:50:26.339Z,78.20
2019-05-21T16:52:55.589Z,78.30
2019-05-21T16:55:24.930Z,78.40
2019-05-21T16:57:56.460Z,78.50
2019-05-21T17:00:27.076Z,78.50
2019-05-21T17:02:56.474Z,78.60
2019-05-21T17:05:25.741Z,78.70
2019-05-21T17:07:55.369Z,78.80
2019-05-21T17:10:24.855Z,78.90
2019-05-21T17:12:54.168Z,79.10
2019-05-21T17:15:23.447Z,79.20
2019-05-21T17:17:52.662Z,79.00
2019-05-21T17:20:21.905Z,79.00
2019-05-21T17:22:53.823Z,79.00
2019-05-21T17:25:23.127Z,79.00
2019-05-21T17:27:52.476Z,79.10
2019-05-21T17:30:22.069Z,79.00
2019-05-21T17:32:51.363Z,79.10
2019-05-21T17:35:21.520Z,79.30
2019-05-21T17:37:50.811Z,79.40
2019-05-21T17:40:20.094Z,79.50
2019-05-21T17:42:49.526Z,79.70
2019-05-21T17:45:18.845Z,80.10
2019-05-21T17:47:48.150Z,80.20
2019-05-21T17:50:17.572Z,80.30
2019-05-21T17:52:46.781Z,80.50
2019-05-21T17:55:16.394Z,80.70
2019-05-21T17:57:45.779Z,80.70
2019-05-21T18:00:17.374Z,81.30
2019-05-21T18:02:47.063Z,81.40
2019-05-21T18:05:16.570Z,81.70
2019-05-21T18:07:46.260Z,81.80
2019-05-21T18:10:16.620Z,81.90
2019-05-21T18:12:46.187Z,82.10
2019-05-21T18:15:16.044Z,82.10
2019-05-21T18:17:46.029Z,82.20
2019-05-21T18:20:18.118Z,82.20
2019-05-21T18:22:48.507Z,82.40
2019-05-21T18:25:18.075Z,82.50
2019-05-21T18:27:47.515Z,82.80
2019-05-21T18:30:17.907Z,82.80
2019-05-21T18:32:47.673Z,82.80
2019-05-21T18:35:17.437Z,82.90
2019-05-21T18:37:46.928Z,83.10
2019-05-21T18:40:16.848Z,83.30
2019-05-21T18:42:46.221Z,83.50
2019-05-21T18:45:15.627Z,83.60
2019-05-21T18:47:44.958Z,83.60
2019-05-21T18:50:14.778Z,83.70
2019-05-21T18:52:44.080Z,83.70
2019-05-21T18:55:14.752Z,83.60
2019-05-21T18:57:43.973Z,83.60
2019-05-21T19:00:15.417Z,83.60
2019-05-21T19:02:44.719Z,83.80
2019-05-21T19:05:14.428Z,83.40
2019-05-21T19:07:43.858Z,84.00
2019-05-21T19:10:14.550Z,84.20
2019-05-21T19:12:43.855Z,84.20
2019-05-21T19:15:13.842Z,84.20
2019-05-21T19:17:43.552Z,84.20
2019-05-21T19:20:14.270Z,84.20
2019-05-21T19:22:43.937Z,84.30
2019-05-21T19:25:13.760Z,84.50
2019-05-21T19:27:43.096Z,84.60
2019-05-21T19:30:12.870Z,84.60
2019-05-21T19:32:42.423Z,84.70
2019-05-21T19:35:11.977Z,84.70
2019-05-21T19:37:41.426Z,84.90
2019-05-21T19:40:12.313Z,85.00
2019-05-21T19:42:54.261Z,85.10
2019-05-21T19:45:16.016Z,85.30
2019-05-21T19:47:45.425Z,85.30
2019-05-21T19:50:16.103Z,85.40
2019-05-21T19:52:46.167Z,85.80
2019-05-21T19:55:16.896Z,85.90
2019-05-21T19:57:48.885Z,86.00
2019-05-21T20:00:24.521Z,86.10
2019-05-21T20:02:54.603Z,86.10
2019-05-21T20:05:27.991Z,86.20
2019-05-21T20:07:58.766Z,86.20
2019-05-21T20:10:29.967Z,86.20
2019-05-21T20:13:02.987Z,86.20
2019-05-21T20:15:33.767Z,86.30
2019-05-21T20:18:09.294Z,86.50
2019-05-21T20:20:39.691Z,86.60
2019-05-21T20:23:12.360Z,86.80
2019-05-21T20:25:56.107Z,86.70
2019-05-21T20:28:16.565Z,86.70
2019-05-21T20:30:47.120Z,86.90
2019-05-21T20:33:19.767Z,87.00
2019-05-21T20:35:49.455Z,87.90
2019-05-21T20:38:21.741Z,87.20
2019-05-21T20:40:53.015Z,87.10
2019-05-21T20:45:51.755Z,87.50
2019-05-21T20:48:23.915Z,87.60
2019-05-21T20:50:53.290Z,87.60
2019-05-21T20:53:22.763Z,87.60
2019-05-21T20:55:54.160Z,87.50
2019-05-21T20:58:23.786Z,87.40
2019-05-21T21:01:02.938Z,87.50
2019-05-21T21:03:33.902Z,88.30
2019-05-21T21:06:07.805Z,88.50
2019-05-21T21:08:40.038Z,87.60
2019-05-21T21:11:11.761Z,87.40
2019-05-21T21:13:41.221Z,87.30
2019-05-21T21:16:12.107Z,87.20
2019-05-21T21:18:42.783Z,87.10
2019-05-21T21:21:12.190Z,87.00
2019-05-21T21:23:43.842Z,87.00
2019-05-21T21:26:14.075Z,86.90
2019-05-21T21:28:45.329Z,86.80
2019-05-21T21:31:15.517Z,86.80
2019-05-21T21:33:46.352Z,86.90
2019-05-21T21:36:16.430Z,86.80
2019-05-21T21:38:47.229Z,86.70
2019-05-21T21:41:19.796Z,86.70
2019-05-21T21:43:49.532Z,86.70
2019-05-21T21:46:20.743Z,86.80
2019-05-21T21:48:50.844Z,86.90
2019-05-21T21:51:21.363Z,87.00
2019-05-21T21:53:51.514Z,87.00
2019-05-21T21:56:21.842Z,87.00
2019-05-21T21:58:51.506Z,87.00
2019-05-21T22:01:55.614Z,87.10
2019-05-21T22:04:38.428Z,86.90
2019-05-21T22:07:07.946Z,87.00
2019-05-21T22:09:40.098Z,87.10
2019-05-21T22:12:12.642Z,86.90
2019-05-21T22:14:51.786Z,86.60
2019-05-21T22:17:15.530Z,86.20
2019-05-21T22:19:45.154Z,86.20
2019-05-21T22:22:14.660Z,86.20
2019-05-21T22:24:44.312Z,86.10
2019-05-21T22:27:13.679Z,85.50
2019-05-21T22:29:45.198Z,85.80
2019-05-21T22:32:16.614Z,85.70
2019-05-21T22:34:45.559Z,85.60
2019-05-21T22:37:16.851Z,85.40
2019-05-21T22:39:47.754Z,85.20
2019-05-21T22:42:17.935Z,84.80
2019-05-21T22:44:47.907Z,84.70
2019-05-21T22:47:17.318Z,84.50
2019-05-21T22:49:46.690Z,84.40
2019-05-21T22:52:16.123Z,84.20
2019-05-21T22:54:45.412Z,84.10
2019-05-21T22:57:14.624Z,84.10
2019-05-21T22:59:44.040Z,83.90
2019-05-21T23:02:17.860Z,83.80
2019-05-21T23:04:47.172Z,83.90
2019-05-21T23:07:16.871Z,83.80
2019-05-21T23:09:46.083Z,83.70
2019-05-21T23:12:15.603Z,83.70
2019-05-21T23:14:44.956Z,83.60
2019-05-21T23:17:14.348Z,83.40
2019-05-21T23:19:45.043Z,83.30
2019-05-21T23:22:16.245Z,82.90
2019-05-21T23:24:46.282Z,83.60
2019-05-21T23:27:17.283Z,82.60
2019-05-21T23:29:46.601Z,82.60
2019-05-21T23:32:16.536Z,82.40
2019-05-21T23:34:46.369Z,82.00
2019-05-21T23:37:20.396Z,81.50
2019-05-21T23:39:52.047Z,81.10
2019-05-21T23:42:29.539Z,81.00
2019-05-21T23:44:52.661Z,80.80
2019-05-21T23:47:23.268Z,80.70
2019-05-21T23:49:52.642Z,80.60
2019-05-21T23:52:22.352Z,80.60
2019-05-21T23:54:51.782Z,80.60
2019-05-21T23:57:27.172Z,80.60
2019-05-21T23:59:57.345Z,80.60
